sensor_id;sensor_type;location;lat;lon;timestamp;pressure;altitude;pressure_sealevel;temperature
70969;BMP280;58630;43.022;25.100;2023-03-01T00:02:03;100212.34;;;12.23
70969;BMP280;58630;43.022;25.100;2023-03-01T00:04:29;100203.75;;;12.22
70969;BMP280;58630;43.022;25.100;2023-03-01T00:06:54;100199.31;;;12.23
70969;BMP280;58630;43.022;25.100;2023-03-01T00:09:20;100201.41;;;12.21
70969;BMP280;58630;43.022;25.100;2023-03-01T00:11:45;100198.81;;;12.21
70969;BMP280;58630;43.022;25.100;2023-03-01T00:14:11;100200.34;;;12.22
70969;BMP280;58630;43.022;25.100;2023-03-01T00:16:37;100201.41;;;12.21
70969;BMP280;58630;43.022;25.100;2023-03-01T00:19:06;100211.84;;;12.21
70969;BMP280;58630;43.022;25.100;2023-03-01T00:21:32;100215.47;;;12.20
70969;BMP280;58630;43.022;25.100;2023-03-01T00:23:58;100211.06;;;12.20
70969;BMP280;58630;43.022;25.100;2023-03-01T00:26:24;100209.47;;;12.19
70969;BMP280;58630;43.022;25.100;2023-03-01T00:28:50;100210.25;;;12.20
70969;BMP280;58630;43.022;25.100;2023-03-01T00:31:16;100198.25;;;12.19
70969;BMP280;58630;43.022;25.100;2023-03-01T00:33:42;100189.88;;;12.17
70969;BMP280;58630;43.022;25.100;2023-03-01T00:36:09;100179.47;;;12.17
70969;BMP280;58630;43.022;25.100;2023-03-01T00:38:35;100176.88;;;12.17
70969;BMP280;58630;43.022;25.100;2023-03-01T00:41:04;100171.91;;;12.15
70969;BMP280;58630;43.022;25.100;2023-03-01T00:43:30;100164.34;;;12.14
70969;BMP280;58630;43.022;25.100;2023-03-01T00:45:55;100158.38;;;12.13
70969;BMP280;58630;43.022;25.100;2023-03-01T00:48:21;100158.38;;;12.13
70969;BMP280;58630;43.022;25.100;2023-03-01T00:50:46;100155.50;;;12.15
70969;BMP280;58630;43.022;25.100;2023-03-01T00:53:11;100152.34;;;12.13
70969;BMP280;58630;43.022;25.100;2023-03-01T00:55:37;100148.97;;;12.12
70969;BMP280;58630;43.022;25.100;2023-03-01T00:58:02;100150.00;;;12.11
70969;BMP280;58630;43.022;25.100;2023-03-01T01:00:27;100149.75;;;12.13
70969;BMP280;58630;43.022;25.100;2023-03-01T01:02:52;100144.78;;;12.11
70969;BMP280;58630;43.022;25.100;2023-03-01T01:05:18;100147.38;;;12.11
70969;BMP280;58630;43.022;25.100;2023-03-01T01:07:46;100157.00;;;12.11
70969;BMP280;58630;43.022;25.100;2023-03-01T01:10:11;100159.63;;;12.11
70969;BMP280;58630;43.022;25.100;2023-03-01T01:12:42;100152.81;;;12.10
70969;BMP280;58630;43.022;25.100;2023-03-01T01:15:08;100160.91;;;12.08
70969;BMP280;58630;43.022;25.100;2023-03-01T01:17:33;100156.50;;;12.09
70969;BMP280;58630;43.022;25.100;2023-03-01T01:19:58;100156.50;;;12.09
70969;BMP280;58630;43.022;25.100;2023-03-01T01:22:23;100163.25;;;12.10
70969;BMP280;58630;43.022;25.100;2023-03-01T01:24:49;100151.28;;;12.09
70969;BMP280;58630;43.022;25.100;2023-03-01T01:27:14;100153.09;;;12.08
70969;BMP280;58630;43.022;25.100;2023-03-01T01:29:39;100149.72;;;12.08
70969;BMP280;58630;43.022;25.100;2023-03-01T01:32:06;100154.13;;;12.07
70969;BMP280;58630;43.022;25.100;2023-03-01T01:34:32;100145.00;;;12.05
70969;BMP280;58630;43.022;25.100;2023-03-01T01:36:57;100150.97;;;12.05
70969;BMP280;58630;43.022;25.100;2023-03-01T01:39:27;100146.81;;;12.04
70969;BMP280;58630;43.022;25.100;2023-03-01T01:41:52;100143.41;;;12.04
70969;BMP280;58630;43.022;25.100;2023-03-01T01:44:22;100138.22;;;12.04
70969;BMP280;58630;43.022;25.100;2023-03-01T01:49:35;100136.63;;;12.03
70969;BMP280;58630;43.022;25.100;2023-03-01T01:52:18;100135.06;;;12.02
70969;BMP280;58630;43.022;25.100;2023-03-01T01:57:12;100139.47;;;12.01
70969;BMP280;58630;43.022;25.100;2023-03-01T01:59:38;100141.31;;;12.01
70969;BMP280;58630;43.022;25.100;2023-03-01T02:02:04;100133.22;;;12.02
70969;BMP280;58630;43.022;25.100;2023-03-01T02:04:31;100133.50;;;12.01
70969;BMP280;58630;43.022;25.100;2023-03-01T02:06:58;100134.53;;;12.00
70969;BMP280;58630;43.022;25.100;2023-03-01T02:09:26;100138.16;;;11.99
70969;BMP280;58630;43.022;25.100;2023-03-01T02:11:52;100139.97;;;11.98
70969;BMP280;58630;43.022;25.100;2023-03-01T02:14:18;100137.38;;;11.98
70969;BMP280;58630;43.022;25.100;2023-03-01T02:16:43;100135.56;;;11.99
70969;BMP280;58630;43.022;25.100;2023-03-01T02:19:10;100134.00;;;11.98
70969;BMP280;58630;43.022;25.100;2023-03-01T02:21:42;100128.78;;;11.98
70969;BMP280;58630;43.022;25.100;2023-03-01T02:27:05;100131.59;;;11.96
70969;BMP280;58630;43.022;25.100;2023-03-01T02:29:30;100124.59;;;11.97
70969;BMP280;58630;43.022;25.100;2023-03-01T02:31:56;100126.41;;;11.96
70969;BMP280;58630;43.022;25.100;2023-03-01T02:34:23;100130.84;;;11.96
70969;BMP280;58630;43.022;25.100;2023-03-01T02:36:56;100125.09;;;11.94
70969;BMP280;58630;43.022;25.100;2023-03-01T02:39:26;100124.03;;;11.95
70969;BMP280;58630;43.022;25.100;2023-03-01T02:41:53;100122.50;;;11.94
70969;BMP280;58630;43.022;25.100;2023-03-01T02:44:19;100122.50;;;11.94
70969;BMP280;58630;43.022;25.100;2023-03-01T02:46:46;100122.50;;;11.94
70969;BMP280;58630;43.022;25.100;2023-03-01T02:49:25;100122.75;;;11.92
70969;BMP280;58630;43.022;25.100;2023-03-01T02:54:23;100123.53;;;11.93
70969;BMP280;58630;43.022;25.100;2023-03-01T02:56:50;100123.53;;;11.93
70969;BMP280;58630;43.022;25.100;2023-03-01T02:59:20;100118.56;;;11.91
70969;BMP280;58630;43.022;25.100;2023-03-01T03:01:45;100122.75;;;11.92
70969;BMP280;58630;43.022;25.100;2023-03-01T03:04:13;100127.41;;;11.90
70969;BMP280;58630;43.022;25.100;2023-03-01T03:06:41;100128.19;;;11.91
70969;BMP280;58630;43.022;25.100;2023-03-01T03:09:07;100124.00;;;11.90
70969;BMP280;58630;43.022;25.100;2023-03-01T03:11:33;100126.88;;;11.88
70969;BMP280;58630;43.022;25.100;2023-03-01T03:13:58;100122.97;;;11.91
70969;BMP280;58630;43.022;25.100;2023-03-01T03:16:23;100125.84;;;11.89
70969;BMP280;58630;43.022;25.100;2023-03-01T03:18:49;100129.72;;;11.87
70969;BMP280;58630;43.022;25.100;2023-03-01T03:21:15;100123.44;;;11.88
70969;BMP280;58630;43.022;25.100;2023-03-01T03:23:41;100126.06;;;11.88
70969;BMP280;58630;43.022;25.100;2023-03-01T03:26:06;100121.91;;;11.87
70969;BMP280;58630;43.022;25.100;2023-03-01T03:28:33;100121.13;;;11.86
70969;BMP280;58630;43.022;25.100;2023-03-01T03:30:58;100125.53;;;11.86
70969;BMP280;58630;43.022;25.100;2023-03-01T03:33:28;100122.94;;;11.86
70969;BMP280;58630;43.022;25.100;2023-03-01T03:35:53;100121.34;;;11.85
70969;BMP280;58630;43.022;25.100;2023-03-01T03:38:19;100125.53;;;11.86
70969;BMP280;58630;43.022;25.100;2023-03-01T03:40:51;100117.97;;;11.84
70969;BMP280;58630;43.022;25.100;2023-03-01T03:43:21;100117.97;;;11.84
70969;BMP280;58630;43.022;25.100;2023-03-01T03:45:47;100123.19;;;11.84
70969;BMP280;58630;43.022;25.100;2023-03-01T03:48:13;100116.63;;;11.82
70969;BMP280;58630;43.022;25.100;2023-03-01T03:50:38;100120.59;;;11.84
70969;BMP280;58630;43.022;25.100;2023-03-01T03:53:05;100120.03;;;11.82
70969;BMP280;58630;43.022;25.100;2023-03-01T03:55:31;100122.63;;;11.82
70969;BMP280;58630;43.022;25.100;2023-03-01T03:57:59;100121.06;;;11.81
70969;BMP280;58630;43.022;25.100;2023-03-01T04:00:31;100119.22;;;11.82
70969;BMP280;58630;43.022;25.100;2023-03-01T04:02:57;100112.44;;;11.81
70969;BMP280;58630;43.022;25.100;2023-03-01T04:05:22;100118.72;;;11.80
70969;BMP280;58630;43.022;25.100;2023-03-01T04:07:48;100118.16;;;11.78
70969;BMP280;58630;43.022;25.100;2023-03-01T04:10:14;100118.16;;;11.78
70969;BMP280;58630;43.022;25.100;2023-03-01T04:12:40;100117.13;;;11.79
70969;BMP280;58630;43.022;25.100;2023-03-01T04:15:06;100119.75;;;11.79
70969;BMP280;58630;43.022;25.100;2023-03-01T04:17:41;100117.13;;;11.79
70969;BMP280;58630;43.022;25.100;2023-03-01T04:20:08;100112.19;;;11.77
70969;BMP280;58630;43.022;25.100;2023-03-01T04:22:34;100115.56;;;11.78
70969;BMP280;58630;43.022;25.100;2023-03-01T04:25:00;100117.38;;;11.77
70969;BMP280;58630;43.022;25.100;2023-03-01T04:27:32;100124.44;;;11.77
70969;BMP280;58630;43.022;25.100;2023-03-01T04:29:57;100123.88;;;11.75
70969;BMP280;58630;43.022;25.100;2023-03-01T04:32:22;100121.81;;;11.77
70969;BMP280;58630;43.022;25.100;2023-03-01T04:34:47;100120.25;;;11.76
70969;BMP280;58630;43.022;25.100;2023-03-01T04:37:13;100129.09;;;11.75
70969;BMP280;58630;43.022;25.100;2023-03-01T04:39:41;100122.28;;;11.74
70969;BMP280;58630;43.022;25.100;2023-03-01T04:42:11;100124.91;;;11.74
70969;BMP280;58630;43.022;25.100;2023-03-01T04:44:36;100120.75;;;11.73
70969;BMP280;58630;43.022;25.100;2023-03-01T04:47:01;100129.09;;;11.75
70969;BMP280;58630;43.022;25.100;2023-03-01T04:49:26;100120.75;;;11.73
70969;BMP280;58630;43.022;25.100;2023-03-01T04:51:52;100125.97;;;11.73
70969;BMP280;58630;43.022;25.100;2023-03-01T04:54:17;100122.81;;;11.71
70969;BMP280;58630;43.022;25.100;2023-03-01T04:56:42;100129.59;;;11.72
70969;BMP280;58630;43.022;25.100;2023-03-01T04:59:07;100126.44;;;11.70
70969;BMP280;58630;43.022;25.100;2023-03-01T05:01:35;100133.22;;;11.71
70969;BMP280;58630;43.022;25.100;2023-03-01T05:04:00;100125.41;;;11.71
70969;BMP280;58630;43.022;25.100;2023-03-01T05:06:28;100121.22;;;11.70
70969;BMP280;58630;43.022;25.100;2023-03-01T05:08:53;100126.44;;;11.70
70969;BMP280;58630;43.022;25.100;2023-03-01T05:11:18;100127.22;;;11.71
70969;BMP280;58630;43.022;25.100;2023-03-01T05:13:43;100124.84;;;11.69
70969;BMP280;58630;43.022;25.100;2023-03-01T05:16:09;100126.91;;;11.67
70969;BMP280;58630;43.022;25.100;2023-03-01T05:18:37;100138.91;;;11.68
70969;BMP280;58630;43.022;25.100;2023-03-01T05:21:04;100136.28;;;11.68
70969;BMP280;58630;43.022;25.100;2023-03-01T05:23:30;100124.31;;;11.67
70969;BMP280;58630;43.022;25.100;2023-03-01T05:25:59;100120.91;;;11.67
70969;BMP280;58630;43.022;25.100;2023-03-01T05:28:25;100123.50;;;11.67
70969;BMP280;58630;43.022;25.100;2023-03-01T05:30:50;100133.16;;;11.66
70969;BMP280;58630;43.022;25.100;2023-03-01T05:33:16;100130.56;;;11.66
70969;BMP280;58630;43.022;25.100;2023-03-01T05:35:42;100125.34;;;11.66
70969;BMP280;58630;43.022;25.100;2023-03-01T05:38:08;100129.00;;;11.65
70969;BMP280;58630;43.022;25.100;2023-03-01T05:40:34;100136.78;;;11.65
70969;BMP280;58630;43.022;25.100;2023-03-01T05:42:59;100142.78;;;11.66
70969;BMP280;58630;43.022;25.100;2023-03-01T05:45:25;100132.38;;;11.66
70969;BMP280;58630;43.022;25.100;2023-03-01T05:47:51;100128.44;;;11.63
70969;BMP280;58630;43.022;25.100;2023-03-01T05:50:20;100131.81;;;11.64
70969;BMP280;58630;43.022;25.100;2023-03-01T05:52:47;100125.84;;;11.63
70969;BMP280;58630;43.022;25.100;2023-03-01T05:55:13;100138.03;;;11.63
70969;BMP280;58630;43.022;25.100;2023-03-01T05:57:38;100132.84;;;11.63
70969;BMP280;58630;43.022;25.100;2023-03-01T06:00:04;100133.09;;;11.61
70969;BMP280;58630;43.022;25.100;2023-03-01T06:02:31;100130.50;;;11.61
70969;BMP280;58630;43.022;25.100;2023-03-01T06:04:56;100134.66;;;11.62
70969;BMP280;58630;43.022;25.100;2023-03-01T06:07:21;100138.28;;;11.61
70969;BMP280;58630;43.022;25.100;2023-03-01T06:09:48;100135.16;;;11.59
70969;BMP280;58630;43.022;25.100;2023-03-01T06:12:13;100141.94;;;11.60
70969;BMP280;58630;43.022;25.100;2023-03-01T06:14:38;100137.00;;;11.59
70969;BMP280;58630;43.022;25.100;2023-03-01T06:17:04;100150.78;;;11.59
70969;BMP280;58630;43.022;25.100;2023-03-01T06:19:29;100150.00;;;11.59
70969;BMP280;58630;43.022;25.100;2023-03-01T06:21:54;100150.78;;;11.59
70969;BMP280;58630;43.022;25.100;2023-03-01T06:24:20;100137.78;;;11.59
70969;BMP280;58630;43.022;25.100;2023-03-01T06:26:45;100138.03;;;11.58
70969;BMP280;58630;43.022;25.100;2023-03-01T06:29:10;100148.66;;;11.56
70969;BMP280;58630;43.022;25.100;2023-03-01T06:31:35;100152.84;;;11.57
70969;BMP280;58630;43.022;25.100;2023-03-01T06:34:01;100149.22;;;11.58
70969;BMP280;58630;43.022;25.100;2023-03-01T06:36:26;100153.66;;;11.58
70969;BMP280;58630;43.022;25.100;2023-03-01T06:38:52;100146.84;;;11.57
70969;BMP280;58630;43.022;25.100;2023-03-01T06:41:17;100156.47;;;11.56
70969;BMP280;58630;43.022;25.100;2023-03-01T06:43:42;100147.88;;;11.56
70969;BMP280;58630;43.022;25.100;2023-03-01T06:46:07;100160.91;;;11.56
70969;BMP280;58630;43.022;25.100;2023-03-01T06:48:33;100156.47;;;11.56
70969;BMP280;58630;43.022;25.100;2023-03-01T06:50:59;100161.66;;;11.56
70969;BMP280;58630;43.022;25.100;2023-03-01T06:53:25;100152.06;;;11.57
70969;BMP280;58630;43.022;25.100;2023-03-01T06:55:54;100150.50;;;11.56
70969;BMP280;58630;43.022;25.100;2023-03-01T06:58:20;100150.22;;;11.57
70969;BMP280;58630;43.022;25.100;2023-03-01T07:00:45;100151.25;;;11.56
70969;BMP280;58630;43.022;25.100;2023-03-01T07:03:10;100158.28;;;11.56
70969;BMP280;58630;43.022;25.100;2023-03-01T07:05:35;100158.03;;;11.57
70969;BMP280;58630;43.022;25.100;2023-03-01T07:08:01;100158.03;;;11.57
70969;BMP280;58630;43.022;25.100;2023-03-01T07:10:26;100156.25;;;11.58
70969;BMP280;58630;43.022;25.100;2023-03-01T07:12:55;100157.03;;;11.58
70969;BMP280;58630;43.022;25.100;2023-03-01T07:15:20;100157.81;;;11.59
70969;BMP280;58630;43.022;25.100;2023-03-01T07:17:45;100157.03;;;11.58
70969;BMP280;58630;43.022;25.100;2023-03-01T07:20:12;100153.66;;;11.58
70969;BMP280;58630;43.022;25.100;2023-03-01T07:22:39;100159.38;;;11.60
70969;BMP280;58630;43.022;25.100;2023-03-01T07:25:05;100158.34;;;11.61
70969;BMP280;58630;43.022;25.100;2023-03-01T07:27:30;100157.53;;;11.60
70969;BMP280;58630;43.022;25.100;2023-03-01T07:29:55;100152.34;;;11.60
70969;BMP280;58630;43.022;25.100;2023-03-01T07:32:21;100150.53;;;11.61
70969;BMP280;58630;43.022;25.100;2023-03-01T07:34:46;100156.53;;;11.61
70969;BMP280;58630;43.022;25.100;2023-03-01T07:37:11;100156.25;;;11.63
70969;BMP280;58630;43.022;25.100;2023-03-01T07:39:36;100154.47;;;11.63
70969;BMP280;58630;43.022;25.100;2023-03-01T07:42:02;100145.63;;;11.64
70969;BMP280;58630;43.022;25.100;2023-03-01T07:44:27;100144.59;;;11.65
70969;BMP280;58630;43.022;25.100;2023-03-01T07:46:53;100139.41;;;11.65
70969;BMP280;58630;43.022;25.100;2023-03-01T07:49:21;100144.31;;;11.67
70969;BMP280;58630;43.022;25.100;2023-03-01T07:51:46;100142.53;;;11.67
70969;BMP280;58630;43.022;25.100;2023-03-01T07:54:11;100138.41;;;11.71
70969;BMP280;58630;43.022;25.100;2023-03-01T07:56:37;100139.19;;;11.72
70969;BMP280;58630;43.022;25.100;2023-03-01T07:59:02;100132.72;;;11.74
70969;BMP280;58630;43.022;25.100;2023-03-01T08:01:27;100132.25;;;11.77
70969;BMP280;58630;43.022;25.100;2023-03-01T08:03:52;100132.75;;;11.79
70969;BMP280;58630;43.022;25.100;2023-03-01T08:06:18;100135.88;;;11.81
70969;BMP280;58630;43.022;25.100;2023-03-01T08:08:43;100133.06;;;11.82
70969;BMP280;58630;43.022;25.100;2023-03-01T08:11:10;100134.63;;;11.83
70969;BMP280;58630;43.022;25.100;2023-03-01T08:13:35;100136.44;;;11.83
70969;BMP280;58630;43.022;25.100;2023-03-01T08:16:05;100132.81;;;11.84
70969;BMP280;58630;43.022;25.100;2023-03-01T08:18:30;100132.81;;;11.84
70969;BMP280;58630;43.022;25.100;2023-03-01T08:21:00;100134.38;;;11.85
70969;BMP280;58630;43.022;25.100;2023-03-01T08:23:25;100129.97;;;11.85
70969;BMP280;58630;43.022;25.100;2023-03-01T08:25:51;100130.75;;;11.86
70969;BMP280;58630;43.022;25.100;2023-03-01T08:28:17;100135.97;;;11.86
70969;BMP280;58630;43.022;25.100;2023-03-01T08:30:43;100135.97;;;11.86
70969;BMP280;58630;43.022;25.100;2023-03-01T08:33:08;100135.19;;;11.85
70969;BMP280;58630;43.022;25.100;2023-03-01T08:35:33;100133.09;;;11.87
70969;BMP280;58630;43.022;25.100;2023-03-01T08:37:58;100135.72;;;11.87
70969;BMP280;58630;43.022;25.100;2023-03-01T08:40:24;100134.94;;;11.87
70969;BMP280;58630;43.022;25.100;2023-03-01T08:42:49;100139.38;;;11.86
70969;BMP280;58630;43.022;25.100;2023-03-01T08:45:15;100137.53;;;11.87
70969;BMP280;58630;43.022;25.100;2023-03-01T08:47:43;100149.50;;;11.88
70969;BMP280;58630;43.022;25.100;2023-03-01T08:50:08;100141.69;;;11.88
70969;BMP280;58630;43.022;25.100;2023-03-01T08:52:34;100137.28;;;11.88
70969;BMP280;58630;43.022;25.100;2023-03-01T08:54:59;100139.63;;;11.90
70969;BMP280;58630;43.022;25.100;2023-03-01T08:57:26;100133.88;;;11.88
70969;BMP280;58630;43.022;25.100;2023-03-01T08:59:51;100142.25;;;11.90
70969;BMP280;58630;43.022;25.100;2023-03-01T09:02:17;100125.84;;;11.89
70969;BMP280;58630;43.022;25.100;2023-03-01T09:04:42;100139.06;;;11.88
70969;BMP280;58630;43.022;25.100;2023-03-01T09:07:08;100139.06;;;11.88
70969;BMP280;58630;43.022;25.100;2023-03-01T09:09:33;100141.47;;;11.89
70969;BMP280;58630;43.022;25.100;2023-03-01T09:11:59;100142.50;;;11.88
70969;BMP280;58630;43.022;25.100;2023-03-01T09:14:24;100141.69;;;11.88
70969;BMP280;58630;43.022;25.100;2023-03-01T09:16:50;100138.31;;;11.87
70969;BMP280;58630;43.022;25.100;2023-03-01T09:19:15;100141.97;;;11.86
70969;BMP280;58630;43.022;25.100;2023-03-01T09:21:40;100138.84;;;11.89
70969;BMP280;58630;43.022;25.100;2023-03-01T09:24:06;100137.03;;;11.90
70969;BMP280;58630;43.022;25.100;2023-03-01T09:26:33;100128.66;;;11.88
70969;BMP280;58630;43.022;25.100;2023-03-01T09:28:58;100128.19;;;11.91
70969;BMP280;58630;43.022;25.100;2023-03-01T09:31:24;100132.63;;;11.90
70969;BMP280;58630;43.022;25.100;2023-03-01T09:33:50;100130.78;;;11.91
70969;BMP280;58630;43.022;25.100;2023-03-01T09:36:16;100120.38;;;11.91
70969;BMP280;58630;43.022;25.100;2023-03-01T09:38:42;100123.78;;;11.91
70969;BMP280;58630;43.022;25.100;2023-03-01T09:43:57;100130.78;;;11.91
70969;BMP280;58630;43.022;25.100;2023-03-01T09:46:24;100133.41;;;11.91
70969;BMP280;58630;43.022;25.100;2023-03-01T09:48:51;100126.38;;;11.91
70969;BMP280;58630;43.022;25.100;2023-03-01T09:51:19;100130.56;;;11.92
70969;BMP280;58630;43.022;25.100;2023-03-01T09:53:47;100134.97;;;11.92
70969;BMP280;58630;43.022;25.100;2023-03-01T09:56:17;100124.56;;;11.92
70969;BMP280;58630;43.022;25.100;2023-03-01T10:01:31;100130.31;;;11.94
70969;BMP280;58630;43.022;25.100;2023-03-01T10:06:44;100118.31;;;11.93
70969;BMP280;58630;43.022;25.100;2023-03-01T10:09:12;100118.31;;;11.93
70969;BMP280;58630;43.022;25.100;2023-03-01T10:11:39;100119.91;;;11.94
70969;BMP280;58630;43.022;25.100;2023-03-01T10:14:09;100119.91;;;11.94
70969;BMP280;58630;43.022;25.100;2023-03-01T10:19:31;100118.06;;;11.94
70969;BMP280;58630;43.022;25.100;2023-03-01T10:21:58;100107.66;;;11.94
70969;BMP280;58630;43.022;25.100;2023-03-01T10:24:26;100103.22;;;11.95
70969;BMP280;58630;43.022;25.100;2023-03-01T10:26:56;100101.38;;;11.95
70969;BMP280;58630;43.022;25.100;2023-03-01T10:29:23;100103.22;;;11.95
70969;BMP280;58630;43.022;25.100;2023-03-01T10:31:50;100102.19;;;11.96
70969;BMP280;58630;43.022;25.100;2023-03-01T10:36:42;100091.78;;;11.96
70969;BMP280;58630;43.022;25.100;2023-03-01T10:39:12;100101.16;;;11.97
70969;BMP280;58630;43.022;25.100;2023-03-01T10:41:40;100095.94;;;11.97
70969;BMP280;58630;43.022;25.100;2023-03-01T10:44:34;100083.47;;;11.99
70969;BMP280;58630;43.022;25.100;2023-03-01T10:47:00;100073.81;;;11.99
70969;BMP280;58630;43.022;25.100;2023-03-01T10:49:26;100082.97;;;12.02
70969;BMP280;58630;43.022;25.100;2023-03-01T10:51:52;100075.16;;;12.02
70969;BMP280;58630;43.022;25.100;2023-03-01T10:54:22;100068.09;;;12.02
70969;BMP280;58630;43.022;25.100;2023-03-01T10:56:53;100060.84;;;12.04
70969;BMP280;58630;43.022;25.100;2023-03-01T10:59:39;100065.03;;;12.05
70969;BMP280;58630;43.022;25.100;2023-03-01T11:02:13;100067.41;;;12.07
70969;BMP280;58630;43.022;25.100;2023-03-01T11:04:39;100062.97;;;12.07
70969;BMP280;58630;43.022;25.100;2023-03-01T11:07:07;100061.16;;;12.08
70969;BMP280;58630;43.022;25.100;2023-03-01T11:09:33;100061.16;;;12.08
70969;BMP280;58630;43.022;25.100;2023-03-01T11:12:03;100057.50;;;12.09
70969;BMP280;58630;43.022;25.100;2023-03-01T11:14:38;100053.34;;;12.08
70969;BMP280;58630;43.022;25.100;2023-03-01T11:17:12;100047.06;;;12.09
70969;BMP280;58630;43.022;25.100;2023-03-01T11:19:39;100052.28;;;12.09
70969;BMP280;58630;43.022;25.100;2023-03-01T11:22:16;100053.06;;;12.09
70969;BMP280;58630;43.022;25.100;2023-03-01T11:24:48;100050.19;;;12.11
70969;BMP280;58630;43.022;25.100;2023-03-01T11:27:33;100049.16;;;12.12
70969;BMP280;58630;43.022;25.100;2023-03-01T11:30:01;100045.00;;;12.11
70969;BMP280;58630;43.022;25.100;2023-03-01T11:32:30;100039.00;;;12.10
70969;BMP280;58630;43.022;25.100;2023-03-01T11:34:57;100030.16;;;12.11
70969;BMP280;58630;43.022;25.100;2023-03-01T11:37:28;100024.94;;;12.11
70969;BMP280;58630;43.022;25.100;2023-03-01T11:45:11;100030.16;;;12.11
70969;BMP280;58630;43.022;25.100;2023-03-01T11:55:35;100021.31;;;12.12
70969;BMP280;58630;43.022;25.100;2023-03-01T11:58:23;100009.31;;;12.11
70969;BMP280;58630;43.022;25.100;2023-03-01T12:01:00;100014.53;;;12.11
70969;BMP280;58630;43.022;25.100;2023-03-01T12:06:26;99997.06;;;12.12
70969;BMP280;58630;43.022;25.100;2023-03-01T12:08:56;100004.88;;;12.12
70969;BMP280;58630;43.022;25.100;2023-03-01T12:16:31;100001.25;;;12.13
70969;BMP280;58630;43.022;25.100;2023-03-01T12:19:06;99990.81;;;12.13
70969;BMP280;58630;43.022;25.100;2023-03-01T12:21:41;99992.66;;;12.12
70969;BMP280;58630;43.022;25.100;2023-03-01T12:29:34;99987.69;;;12.11
70969;BMP280;58630;43.022;25.100;2023-03-01T12:42:37;99983.28;;;12.11
70969;BMP280;58630;43.022;25.100;2023-03-01T12:50:23;99978.84;;;12.12
70969;BMP280;58630;43.022;25.100;2023-03-01T12:52:53;99977.03;;;12.12
70969;BMP280;58630;43.022;25.100;2023-03-01T12:55:31;99977.81;;;12.13
70969;BMP280;58630;43.022;25.100;2023-03-01T13:00:45;99988.22;;;12.13
70969;BMP280;58630;43.022;25.100;2023-03-01T13:05:46;99985.63;;;12.13
70969;BMP280;58630;43.022;25.100;2023-03-01T13:08:22;99986.41;;;12.13
70969;BMP280;58630;43.022;25.100;2023-03-01T13:10:56;99986.41;;;12.13
70969;BMP280;58630;43.022;25.100;2023-03-01T13:13:24;99988.75;;;12.15
70969;BMP280;58630;43.022;25.100;2023-03-01T13:15:50;99986.16;;;12.15
70969;BMP280;58630;43.022;25.100;2023-03-01T13:25:35;99983.81;;;12.13
70969;BMP280;58630;43.022;25.100;2023-03-01T13:31:06;99990.81;;;12.13
70969;BMP280;58630;43.022;25.100;2023-03-01T13:35:59;99977.81;;;12.13
70969;BMP280;58630;43.022;25.100;2023-03-01T13:41:02;99977.56;;;12.14
70969;BMP280;58630;43.022;25.100;2023-03-01T13:43:30;99977.81;;;12.13
70969;BMP280;58630;43.022;25.100;2023-03-01T13:45:55;99975.19;;;12.13
70969;BMP280;58630;43.022;25.100;2023-03-01T13:48:25;99972.84;;;12.11
70969;BMP280;58630;43.022;25.100;2023-03-01T13:50:51;99969.97;;;12.13
70969;BMP280;58630;43.022;25.100;2023-03-01T13:53:18;99965.56;;;12.13
70969;BMP280;58630;43.022;25.100;2023-03-01T13:58:30;99958.78;;;12.12
70969;BMP280;58630;43.022;25.100;2023-03-01T14:03:21;99957.22;;;12.11
70969;BMP280;58630;43.022;25.100;2023-03-01T14:06:10;99958.78;;;12.12
70969;BMP280;58630;43.022;25.100;2023-03-01T14:08:37;99963.19;;;12.12
70969;BMP280;58630;43.022;25.100;2023-03-01T14:13:56;99952.78;;;12.12
70969;BMP280;58630;43.022;25.100;2023-03-01T14:19:12;99953.81;;;12.11
70969;BMP280;58630;43.022;25.100;2023-03-01T14:21:39;99943.38;;;12.11
70969;BMP280;58630;43.022;25.100;2023-03-01T14:24:04;99943.66;;;12.09
70969;BMP280;58630;43.022;25.100;2023-03-01T14:26:29;99947.81;;;12.10
70969;BMP280;58630;43.022;25.100;2023-03-01T14:28:56;99948.84;;;12.09
70969;BMP280;58630;43.022;25.100;2023-03-01T14:31:38;99948.09;;;12.09
70969;BMP280;58630;43.022;25.100;2023-03-01T14:34:04;99950.69;;;12.09
70969;BMP280;58630;43.022;25.100;2023-03-01T14:36:30;99945.50;;;12.09
70969;BMP280;58630;43.022;25.100;2023-03-01T14:38:56;99948.09;;;12.09
70969;BMP280;58630;43.022;25.100;2023-03-01T14:41:29;99948.84;;;12.09
70969;BMP280;58630;43.022;25.100;2023-03-01T14:43:57;99953.31;;;12.09
70969;BMP280;58630;43.022;25.100;2023-03-01T14:46:44;99948.84;;;12.09
70969;BMP280;58630;43.022;25.100;2023-03-01T14:49:11;99954.34;;;12.08
70969;BMP280;58630;43.022;25.100;2023-03-01T14:51:42;99959.78;;;12.06
70969;BMP280;58630;43.022;25.100;2023-03-01T14:54:27;99958.00;;;12.07
70969;BMP280;58630;43.022;25.100;2023-03-01T14:56:53;99957.19;;;12.06
70969;BMP280;58630;43.022;25.100;2023-03-01T14:59:22;99967.88;;;12.05
70969;BMP280;58630;43.022;25.100;2023-03-01T15:01:49;99962.66;;;12.05
70969;BMP280;58630;43.022;25.100;2023-03-01T15:04:14;99960.06;;;12.05
70969;BMP280;58630;43.022;25.100;2023-03-01T15:06:40;99960.06;;;12.05
70969;BMP280;58630;43.022;25.100;2023-03-01T15:09:06;99955.88;;;12.04
70969;BMP280;58630;43.022;25.100;2023-03-01T15:11:33;99957.69;;;12.03
70969;BMP280;58630;43.022;25.100;2023-03-01T15:13:58;99946.50;;;12.03
70969;BMP280;58630;43.022;25.100;2023-03-01T15:16:30;99948.28;;;12.02
70969;BMP280;58630;43.022;25.100;2023-03-01T15:18:56;99950.13;;;12.02
70969;BMP280;58630;43.022;25.100;2023-03-01T15:21:38;99950.13;;;12.02
70969;BMP280;58630;43.022;25.100;2023-03-01T15:24:08;99947.78;;;12.00
70969;BMP280;58630;43.022;25.100;2023-03-01T15:26:58;99945.19;;;12.00